Time,TemperatureF,DewpointF,PressureIn,WindDirection,WindDirectionDegrees,WindSpeedMPH,WindSpeedGustMPH,Humidity,HourlyPrecipIn,Conditions,Clouds,dailyrainin,SoftwareType,DateUTC
2013-05-10 00:01:00,30.0,29.0,-100.00,SW,235,0.0,1.0,97,-99.99,,,-99.99,,2013-05-10 06:01:00,
2013-05-10 00:12:00,30.0,29.0,-100.00,SW,220,0.0,1.0,97,-99.99,,,-99.99,,2013-05-10 06:12:00,
2013-05-10 00:21:00,30.0,29.0,-100.00,SW,220,0.0,0.0,97,-99.99,,,-99.99,,2013-05-10 06:21:00,
2013-05-10 00:32:00,29.0,29.0,-100.00,SSW,195,0.0,1.0,97,-99.99,,,-99.99,,2013-05-10 06:32:00,
2013-05-10 00:42:00,29.0,28.0,-100.00,SSW,200,0.0,0.0,97,-99.99,,,-99.99,,2013-05-10 06:42:00,
2013-05-10 00:51:00,29.0,28.0,-100.00,SSW,200,0.0,1.0,97,-99.99,,,-99.99,,2013-05-10 06:51:00,
2013-05-10 01:00:00,30.0,29.0,-100.00,SE,145,0.0,2.0,97,-99.99,,,-99.99,,2013-05-10 07:00:00,
2013-05-10 01:02:00,29.0,28.0,-100.00,SSW,200,0.0,1.0,97,-99.99,,,-99.99,,2013-05-10 07:02:00,
2013-05-10 01:12:00,29.0,29.0,-100.00,South,190,1.0,1.0,97,-99.99,,,-99.99,,2013-05-10 07:12:00,
2013-05-10 01:22:00,30.0,29.0,-100.00,SE,145,0.0,2.0,97,-99.99,,,-99.99,,2013-05-10 07:22:00,
2013-05-10 01:31:00,30.0,29.0,-100.00,SE,145,0.0,2.0,97,-99.99,,,-99.99,,2013-05-10 07:31:00,
2013-05-10 01:42:00,30.0,29.0,-100.00,SE,145,0.0,2.0,97,-99.99,,,-99.99,,2013-05-10 07:42:00,
2013-05-10 01:52:00,30.0,29.0,-100.00,SE,145,0.0,2.0,97,-99.99,,,-99.99,,2013-05-10 07:52:00,
2013-05-10 03:20:00,28.0,28.0,-100.00,SSW,210,0.0,0.0,97,-99.99,,,-99.99,,2013-05-10 09:20:00,
2013-05-10 03:52:00,28.0,28.0,-100.00,SSW,210,0.0,0.0,97,-99.99,,,-99.99,,2013-05-10 09:52:00,
2013-05-10 04:03:00,28.0,28.0,-100.00,SSW,210,0.0,0.0,97,-99.99,,,-99.99,,2013-05-10 10:03:00,
2013-05-10 04:12:00,28.0,28.0,-100.00,SSW,210,0.0,0.0,97,-99.99,,,-99.99,,2013-05-10 10:12:00,
2013-05-10 07:42:00,31.0,31.0,-100.00,ESE,120,1.0,3.0,97,-99.99,,,-99.99,,2013-05-10 13:42:00,
2013-05-10 07:52:00,32.0,31.0,-100.00,West,275,1.0,4.0,97,-99.99,,,-99.99,,2013-05-10 13:52:00,
2013-05-10 08:02:00,33.0,33.0,-100.00,East,80,1.0,6.0,97,-99.99,,,-99.99,,2013-05-10 14:02:00,
2013-05-10 08:11:00,35.0,33.0,-100.00,NNW,330,5.0,7.0,92,-99.99,,,-99.99,,2013-05-10 14:11:00,
2013-05-10 08:21:00,37.0,33.0,-100.00,North,5,3.0,6.0,84,-99.99,,,-99.99,,2013-05-10 14:21:00,
2013-05-10 08:32:00,39.0,30.0,-100.00,WNW,285,3.0,7.0,71,-99.99,,,-99.99,,2013-05-10 14:32:00,
2013-05-10 08:41:00,40.0,29.0,-100.00,NNW,330,2.0,6.0,63,-99.99,,,-99.99,,2013-05-10 14:41:00,
2013-05-10 08:51:00,41.0,27.0,-100.00,NNW,340,2.0,8.0,56,-99.99,,,-99.99,,2013-05-10 14:51:00,
2013-05-10 09:01:00,42.0,26.0,-100.00,NW,320,4.0,8.0,54,-99.99,,,-99.99,,2013-05-10 15:01:00,
2013-05-10 09:20:00,-999.0,-99.9,-100.00,ESE,110,1.0,6.0,51,-99.99,,,-99.99,,2013-05-10 15:20:00,
2013-05-10 09:32:00,45.0,25.0,-100.00,NE,55,4.0,7.0,45,-99.99,,,-99.99,,2013-05-10 15:32:00,
2013-05-10 09:42:00,46.0,26.0,-100.00,NNE,20,4.0,7.0,44,-99.99,,,-99.99,,2013-05-10 15:42:00,
2013-05-10 09:52:00,46.0,26.0,-100.00,NNE,20,4.0,7.0,44,-99.99,,,-99.99,,2013-05-10 15:52:00,
2013-05-10 10:02:00,47.0,26.0,-100.00,North,10,4.0,11.0,43,-99.99,,,-99.99,,2013-05-10 16:02:00,
2013-05-10 10:12:00,47.0,26.0,-100.00,North,10,3.0,9.0,42,-99.99,,,-99.99,,2013-05-10 16:12:00,
2013-05-10 10:23:00,48.0,26.0,-100.00,North,0,4.0,8.0,41,-99.99,,,-99.99,,2013-05-10 16:23:00,
2013-05-10 10:32:00,46.0,25.0,-100.00,North,0,4.0,10.0,43,-99.99,,,-99.99,,2013-05-10 16:32:00,
2013-05-10 10:42:00,45.0,25.0,-100.00,NNW,335,2.0,7.0,45,-99.99,,,-99.99,,2013-05-10 16:42:00,
2013-05-10 10:52:00,45.0,26.0,-100.00,NW,325,6.0,7.0,45,-99.99,,,-99.99,,2013-05-10 16:52:00,
2013-05-10 11:02:00,44.0,25.0,-100.00,ENE,75,4.0,9.0,45,-99.99,,,-99.99,,2013-05-10 17:02:00,
2013-05-10 11:12:00,44.0,24.0,-100.00,NNE,15,3.0,7.0,44,-99.99,,,-99.99,,2013-05-10 17:12:00,
2013-05-10 11:21:00,44.0,24.0,-100.00,NNE,15,3.0,7.0,44,-99.99,,,-99.99,,2013-05-10 17:21:00,
2013-05-10 11:32:00,45.0,24.0,-100.00,North,0,4.0,7.0,44,-99.99,,,-99.99,,2013-05-10 17:32:00,
2013-05-10 11:42:00,45.0,25.0,-100.00,North,0,6.0,10.0,45,-99.99,,,-99.99,,2013-05-10 17:42:00,
2013-05-10 11:52:00,40.0,26.0,-100.00,NE,55,2.0,18.0,56,-99.99,,,-99.99,,2013-05-10 17:52:00,
2013-05-10 12:10:00,-999.0,-99.9,-100.00,NNW,330,1.0,4.0,62,-99.99,,,-99.99,,2013-05-10 18:10:00,
2013-05-10 12:21:00,47.0,32.0,-100.00,NE,55,1.0,6.0,55,-99.99,,,-99.99,,2013-05-10 18:21:00,
2013-05-10 12:34:00,47.0,29.0,-100.00,NE,35,2.0,8.0,49,-99.99,,,-99.99,,2013-05-10 18:34:00,
2013-05-10 12:43:00,49.0,28.0,-100.00,ENE,65,3.0,8.0,44,-99.99,,,-99.99,,2013-05-10 18:43:00,
2013-05-10 12:54:00,49.0,27.0,-100.00,NNE,20,3.0,9.0,41,-99.99,,,-99.99,,2013-05-10 18:54:00,
2013-05-10 13:02:00,48.0,26.0,-100.00,North,5,3.0,12.0,43,-99.99,,,-99.99,,2013-05-10 19:02:00,
2013-05-10 13:11:00,51.0,26.0,-100.00,North,10,6.0,13.0,37,-99.99,,,-99.99,,2013-05-10 19:11:00,
2013-05-10 13:21:00,48.0,24.0,-100.00,NNE,20,7.0,12.0,39,-99.99,,,-99.99,,2013-05-10 19:21:00,
2013-05-10 13:32:00,49.0,24.0,-100.00,North,5,5.0,10.0,37,-99.99,,,-99.99,,2013-05-10 19:32:00,
2013-05-10 13:42:00,51.0,24.0,-100.00,NE,50,6.0,13.0,34,-99.99,,,-99.99,,2013-05-10 19:42:00,
2013-05-10 13:52:00,51.0,24.0,-100.00,North,0,3.0,12.0,35,-99.99,,,-99.99,,2013-05-10 19:52:00,
2013-05-10 14:01:00,51.0,24.0,-100.00,North,0,8.0,13.0,34,-99.99,,,-99.99,,2013-05-10 20:01:00,
2013-05-10 14:12:00,50.0,23.0,-100.00,NNE,15,4.0,10.0,34,-99.99,,,-99.99,,2013-05-10 20:12:00,
2013-05-10 14:21:00,51.0,23.0,-100.00,NW,325,5.0,12.0,33,-99.99,,,-99.99,,2013-05-10 20:21:00,
2013-05-10 14:32:00,49.0,25.0,-100.00,NE,45,6.0,19.0,38,-99.99,,,-99.99,,2013-05-10 20:32:00,
2013-05-10 14:41:00,49.0,26.0,-100.00,NE,35,3.0,10.0,40,-99.99,,,-99.99,,2013-05-10 20:41:00,
2013-05-10 14:52:00,51.0,28.0,-100.00,NE,50,3.0,19.0,40,-99.99,,,-99.99,,2013-05-10 20:52:00,
2013-05-10 15:02:00,49.0,27.0,-100.00,North,10,4.0,11.0,41,-99.99,,,-99.99,,2013-05-10 21:02:00,
2013-05-10 15:11:00,50.0,27.0,-100.00,North,10,4.0,7.0,40,-99.99,,,-99.99,,2013-05-10 21:11:00,
2013-05-10 15:24:00,51.0,26.0,-100.00,NE,40,2.0,9.0,36,-99.99,,,-99.99,,2013-05-10 21:24:00,
2013-05-10 15:32:00,52.0,25.0,-100.00,West,280,3.0,6.0,34,-99.99,,,-99.99,,2013-05-10 21:32:00,
2013-05-10 15:43:00,54.0,24.0,-100.00,West,280,3.0,7.0,32,-99.99,,,-99.99,,2013-05-10 21:43:00,
2013-05-10 15:52:00,49.0,26.0,-100.00,ENE,75,3.0,24.0,38,-99.99,,,-99.99,,2013-05-10 21:52:00,
2013-05-10 16:02:00,48.0,26.0,-100.00,ENE,60,6.0,13.0,41,-99.99,,,-99.99,,2013-05-10 22:02:00,
2013-05-10 16:13:00,46.0,25.0,-100.00,East,95,3.0,15.0,42,-99.99,,,-99.99,,2013-05-10 22:13:00,
2013-05-10 16:22:00,50.0,25.0,-100.00,NNE,15,2.0,9.0,37,-99.99,,,-99.99,,2013-05-10 22:22:00,
2013-05-10 16:32:00,51.0,24.0,-100.00,ENE,70,2.0,9.0,35,-99.99,,,-99.99,,2013-05-10 22:32:00,
2013-05-10 16:42:00,50.0,25.0,-100.00,North,10,5.0,9.0,36,-99.99,,,-99.99,,2013-05-10 22:42:00,
2013-05-10 16:52:00,51.0,25.0,-100.00,NE,55,4.0,10.0,35,-99.99,,,-99.99,,2013-05-10 22:52:00,
2013-05-10 17:02:00,49.0,25.0,-100.00,ENE,65,7.0,14.0,38,-99.99,,,-99.99,,2013-05-10 23:02:00,
2013-05-10 17:12:00,47.0,25.0,-100.00,NE,40,4.0,11.0,42,-99.99,,,-99.99,,2013-05-10 23:12:00,
2013-05-10 17:22:00,46.0,25.0,-100.00,NNE,20,4.0,12.0,44,-99.99,,,-99.99,,2013-05-10 23:22:00,
2013-05-10 17:32:00,46.0,26.0,-100.00,NE,55,2.0,9.0,45,-99.99,,,-99.99,,2013-05-10 23:32:00,
2013-05-10 17:42:00,45.0,26.0,-100.00,North,10,1.0,6.0,45,-99.99,,,-99.99,,2013-05-10 23:42:00,
2013-05-10 17:52:00,46.0,26.0,-100.00,NE,55,1.0,2.0,46,-99.99,,,-99.99,,2013-05-10 23:52:00,
2013-05-10 18:02:00,46.0,27.0,-100.00,ENE,65,0.0,1.0,47,-99.99,,,-99.99,,2013-05-11 00:02:00,
2013-05-10 18:11:00,49.0,27.0,-100.00,North,0,2.0,2.0,42,-99.99,,,-99.99,,2013-05-11 00:11:00,
2013-05-10 18:21:00,47.0,26.0,-100.00,North,350,1.0,2.0,42,-99.99,,,-99.99,,2013-05-11 00:21:00,
2013-05-10 18:32:00,46.0,26.0,-100.00,NW,320,2.0,4.0,44,-99.99,,,-99.99,,2013-05-11 00:32:00,
2013-05-10 18:42:00,45.0,26.0,-100.00,NNE,25,1.0,5.0,46,-99.99,,,-99.99,,2013-05-11 00:42:00,
2013-05-10 18:51:00,45.0,26.0,-100.00,NNW,345,2.0,4.0,48,-99.99,,,-99.99,,2013-05-11 00:51:00,
2013-05-10 19:01:00,45.0,27.0,-100.00,NW,325,3.0,6.0,48,-99.99,,,-99.99,,2013-05-11 01:01:00,
2013-05-10 19:11:00,44.0,26.0,-100.00,ENE,65,1.0,6.0,48,-99.99,,,-99.99,,2013-05-11 01:11:00,
2013-05-10 19:21:00,44.0,26.0,-100.00,NW,320,3.0,6.0,48,-99.99,,,-99.99,,2013-05-11 01:21:00,
2013-05-10 19:32:00,46.0,27.0,-100.00,WNW,285,1.0,4.0,47,-99.99,,,-99.99,,2013-05-11 01:32:00,
2013-05-10 19:42:00,47.0,27.0,-100.00,WNW,290,1.0,4.0,46,-99.99,,,-99.99,,2013-05-11 01:42:00,
2013-05-10 19:52:00,45.0,27.0,-100.00,NNE,30,0.0,2.0,49,-99.99,,,-99.99,,2013-05-11 01:52:00,
2013-05-10 20:02:00,42.0,27.0,-100.00,ENE,70,0.0,1.0,53,-99.99,,,-99.99,,2013-05-11 02:02:00,
2013-05-10 20:11:00,41.0,27.0,-100.00,SE,140,1.0,3.0,56,-99.99,,,-99.99,,2013-05-11 02:11:00,
2013-05-10 20:21:00,40.0,27.0,-100.00,SE,140,0.0,1.0,59,-99.99,,,-99.99,,2013-05-11 02:21:00,
2013-05-10 20:32:00,39.0,28.0,-100.00,SE,135,1.0,1.0,64,-99.99,,,-99.99,,2013-05-11 02:32:00,
2013-05-10 20:42:00,38.0,28.0,-100.00,SE,135,0.0,1.0,67,-99.99,,,-99.99,,2013-05-11 02:42:00,
2013-05-10 20:51:00,38.0,29.0,-100.00,SE,135,1.0,1.0,71,-99.99,,,-99.99,,2013-05-11 02:51:00,
2013-05-10 21:01:00,37.0,30.0,-100.00,North,0,1.0,6.0,73,-99.99,,,-99.99,,2013-05-11 03:01:00,
2013-05-10 21:11:00,37.0,30.0,-100.00,SE,140,1.0,2.0,75,-99.99,,,-99.99,,2013-05-11 03:11:00,
2013-05-10 21:21:00,36.0,30.0,-100.00,South,185,2.0,2.0,77,-99.99,,,-99.99,,2013-05-11 03:21:00,
2013-05-10 21:33:00,36.0,30.0,-100.00,SSE,150,0.0,2.0,79,-99.99,,,-99.99,,2013-05-11 03:33:00,
2013-05-10 21:42:00,36.0,30.0,-100.00,SW,225,1.0,3.0,81,-99.99,,,-99.99,,2013-05-11 03:42:00,
2013-05-10 21:53:00,36.0,31.0,-100.00,SW,215,4.0,7.0,79,-99.99,,,-99.99,,2013-05-11 03:53:00,
2013-05-10 22:02:00,37.0,31.0,-100.00,SW,220,3.0,7.0,78,-99.99,,,-99.99,,2013-05-11 04:02:00,
2013-05-10 22:12:00,37.0,30.0,-100.00,SSE,165,1.0,4.0,78,-99.99,,,-99.99,,2013-05-11 04:12:00,
2013-05-10 22:23:00,36.0,30.0,-100.00,SW,235,1.0,2.0,80,-99.99,,,-99.99,,2013-05-11 04:23:00,
2013-05-10 22:33:00,36.0,31.0,-100.00,SW,235,1.0,6.0,81,-99.99,,,-99.99,,2013-05-11 04:33:00,
2013-05-10 22:43:00,36.0,31.0,-100.00,SE,145,2.0,4.0,81,-99.99,,,-99.99,,2013-05-11 04:43:00,
2013-05-10 22:52:00,36.0,31.0,-100.00,SSE,165,1.0,3.0,80,-99.99,,,-99.99,,2013-05-11 04:52:00,
2013-05-10 23:02:00,36.0,31.0,-100.00,SSE,150,1.0,2.0,81,-99.99,,,-99.99,,2013-05-11 05:02:00,
2013-05-10 23:12:00,36.0,31.0,-100.00,ESE,120,1.0,3.0,82,-99.99,,,-99.99,,2013-05-11 05:12:00,
2013-05-10 23:21:00,35.0,30.0,-100.00,SSE,155,0.0,1.0,82,-99.99,,,-99.99,,2013-05-11 05:21:00,
2013-05-10 23:32:00,34.0,30.0,-100.00,SSW,210,1.0,1.0,84,-99.99,,,-99.99,,2013-05-11 05:32:00,
2013-05-10 23:42:00,33.0,30.0,-100.00,SE,140,0.0,1.0,86,-99.99,,,-99.99,,2013-05-11 05:42:00,
2013-05-10 23:52:00,33.0,29.0,-100.00,SE,140,0.0,0.0,87,-99.99,,,-99.99,,2013-05-11 05:52:00,